createdAt,value
2018-07-19T00:00:58.125Z,7.50
2018-07-19T00:03:26.705Z,4.83
2018-07-19T00:05:55.282Z,5.23
2018-07-19T00:08:23.854Z,6.10
2018-07-19T00:10:52.379Z,4.00
2018-07-19T00:13:21.081Z,7.60
2018-07-19T00:15:50.218Z,6.50
2018-07-19T00:18:21.800Z,6.40
2018-07-19T00:20:51.290Z,3.43
2018-07-19T00:23:19.870Z,5.77
2018-07-19T00:25:48.437Z,4.03
2018-07-19T00:28:17.002Z,9.33
2018-07-19T00:30:45.550Z,6.90
2018-07-19T00:33:14.460Z,7.27
2018-07-19T00:35:43.012Z,7.47
2018-07-19T00:38:11.565Z,4.30
2018-07-19T00:40:40.109Z,4.77
2018-07-19T00:43:08.709Z,9.73
2018-07-19T00:45:36.911Z,3.90
2018-07-19T00:48:06.181Z,4.93
2018-07-19T00:50:34.821Z,6.47
2018-07-19T00:53:03.421Z,5.83
2018-07-19T00:55:31.929Z,3.97
2018-07-19T00:58:00.469Z,4.13
2018-07-19T01:00:29.000Z,5.53
2018-07-19T01:02:57.827Z,6.30
2018-07-19T01:05:26.409Z,6.53
2018-07-19T01:07:54.979Z,6.13
2018-07-19T01:10:23.839Z,4.17
2018-07-19T01:12:52.393Z,4.47
2018-07-19T01:15:20.909Z,5.77
2018-07-19T01:17:49.481Z,7.70
2018-07-19T01:20:18.252Z,7.10
2018-07-19T01:22:47.776Z,3.73
2018-07-19T01:25:16.439Z,3.57
2018-07-19T01:27:45.023Z,6.53
2018-07-19T01:30:13.626Z,7.07
2018-07-19T01:32:42.168Z,6.33
2018-07-19T01:35:10.753Z,5.73
2018-07-19T01:37:39.281Z,5.27
2018-07-19T01:40:14.349Z,5.90
2018-07-19T01:42:44.192Z,6.20
2018-07-19T01:45:13.332Z,5.57
2018-07-19T01:47:42.216Z,4.63
2018-07-19T01:50:11.518Z,5.03
2018-07-19T01:52:40.105Z,5.70
2018-07-19T01:55:09.106Z,9.30
2018-07-19T01:57:37.674Z,4.80
2018-07-19T02:00:06.838Z,7.23
2018-07-19T02:02:35.350Z,4.93
2018-07-19T02:05:04.141Z,5.10
2018-07-19T02:07:32.674Z,9.50
2018-07-19T02:10:01.257Z,5.73
2018-07-19T02:12:29.853Z,6.20
2018-07-19T02:14:58.409Z,7.10
2018-07-19T02:17:26.970Z,5.30
2018-07-19T02:19:55.553Z,6.43
2018-07-19T02:22:24.174Z,5.17
2018-07-19T02:24:52.420Z,4.67
2018-07-19T02:27:20.989Z,3.83
2018-07-19T02:29:49.554Z,4.40
2018-07-19T02:32:18.087Z,4.23
2018-07-19T02:34:46.673Z,5.77
2018-07-19T02:37:15.247Z,4.67
2018-07-19T02:39:43.837Z,4.87
2018-07-19T02:42:12.381Z,4.90
2018-07-19T02:44:40.966Z,8.30
2018-07-19T02:47:09.479Z,7.83
2018-07-19T02:49:38.017Z,10.80
2018-07-19T02:52:06.961Z,8.60
2018-07-19T02:54:35.476Z,7.70
2018-07-19T02:57:04.078Z,6.37
2018-07-19T02:59:32.585Z,4.10
2018-07-19T03:02:01.178Z,6.53
2018-07-19T03:04:29.688Z,5.03
2018-07-19T03:06:58.287Z,5.30
2018-07-19T03:09:26.481Z,4.90
2018-07-19T03:11:55.528Z,6.30
2018-07-19T03:14:24.753Z,5.17
2018-07-19T03:16:53.018Z,4.07
2018-07-19T03:19:21.236Z,5.33
2018-07-19T03:21:49.784Z,8.77
2018-07-19T03:24:18.411Z,4.00
2018-07-19T03:26:46.977Z,4.90
2018-07-19T03:29:16.208Z,6.37
2018-07-19T03:31:44.779Z,6.43
2018-07-19T03:34:13.340Z,4.37
2018-07-19T03:36:41.878Z,4.77
2018-07-19T03:39:11.765Z,6.50
2018-07-19T03:41:40.600Z,4.70
2018-07-19T03:44:09.140Z,8.00
2018-07-19T03:46:37.750Z,3.97
2018-07-19T03:49:06.278Z,4.20
2018-07-19T03:51:34.525Z,4.77
2018-07-19T03:54:03.101Z,8.30
2018-07-19T03:56:32.030Z,6.50
2018-07-19T03:59:00.562Z,4.07
2018-07-19T04:01:29.657Z,4.97
2018-07-19T04:03:58.221Z,4.70
2018-07-19T04:06:26.788Z,4.77
2018-07-19T04:08:55.341Z,9.13
2018-07-19T04:11:23.905Z,5.77
2018-07-19T04:13:52.425Z,4.17
2018-07-19T04:16:20.664Z,5.77
2018-07-19T04:18:49.201Z,5.30
2018-07-19T04:21:17.783Z,6.53
2018-07-19T04:23:46.312Z,5.00
2018-07-19T04:26:15.445Z,5.53
2018-07-19T04:28:45.589Z,7.83
2018-07-19T04:31:15.356Z,4.90
2018-07-19T04:33:43.915Z,4.90
2018-07-19T04:36:12.506Z,8.50
2018-07-19T04:38:41.141Z,8.30
2018-07-19T04:41:10.201Z,7.67
2018-07-19T04:43:38.770Z,13.60
2018-07-19T04:46:08.161Z,6.73
2018-07-19T04:48:37.321Z,11.33
2018-07-19T04:51:06.041Z,6.50
2018-07-19T04:53:35.870Z,6.33
2018-07-19T04:56:04.921Z,11.30
2018-07-19T04:58:33.505Z,10.27
2018-07-19T05:01:02.046Z,4.20
2018-07-19T05:03:30.646Z,8.27
2018-07-19T05:05:59.765Z,5.93
2018-07-19T05:08:31.689Z,9.80
2018-07-19T05:11:02.266Z,7.17
2018-07-19T05:13:36.599Z,4.73
2018-07-19T05:16:05.416Z,6.47
2018-07-19T05:18:34.036Z,5.57
2018-07-19T05:21:02.610Z,7.17
2018-07-19T05:23:31.229Z,5.27
2018-07-19T05:26:05.585Z,4.73
2018-07-19T05:28:39.620Z,6.67
2018-07-19T05:31:08.570Z,5.50
2018-07-19T05:33:37.238Z,5.13
2018-07-19T05:36:05.863Z,5.63
2018-07-19T05:38:34.490Z,5.03
2018-07-19T05:41:02.981Z,6.67
2018-07-19T05:43:32.112Z,4.77
2018-07-19T05:46:01.742Z,4.07
2018-07-19T05:48:31.633Z,5.33
2018-07-19T05:51:00.221Z,8.97
2018-07-19T05:53:29.669Z,4.00
2018-07-19T05:55:58.691Z,5.77
2018-07-19T05:58:26.989Z,4.43
2018-07-19T06:00:55.549Z,3.77
2018-07-19T06:03:24.121Z,4.53
2018-07-19T06:05:53.200Z,5.13
2018-07-19T06:08:21.801Z,4.67
2018-07-19T06:10:50.385Z,4.30
2018-07-19T06:13:20.618Z,6.73
2018-07-19T06:15:49.276Z,4.90
2018-07-19T06:18:17.914Z,7.20
2018-07-19T06:20:46.494Z,3.73
2018-07-19T06:23:15.053Z,5.23
2018-07-19T06:25:43.612Z,7.97
2018-07-19T06:28:13.587Z,9.20
2018-07-19T06:30:43.746Z,6.93
2018-07-19T06:33:12.390Z,5.97
2018-07-19T06:35:40.996Z,8.27
2018-07-19T06:38:10.538Z,4.90
2018-07-19T06:40:39.671Z,9.47
2018-07-19T06:43:08.277Z,6.70
2018-07-19T06:45:36.882Z,6.57
2018-07-19T06:48:05.986Z,11.27
2018-07-19T06:50:34.773Z,4.70
2018-07-19T06:53:03.421Z,7.03
2018-07-19T06:55:32.061Z,8.37
2018-07-19T06:58:00.388Z,5.70
2018-07-19T07:00:29.624Z,7.77
2018-07-19T07:02:58.422Z,5.23
2018-07-19T07:05:26.966Z,7.03
2018-07-19T07:07:55.552Z,9.87
2018-07-19T07:10:24.256Z,7.40
2018-07-19T07:12:52.894Z,5.17
2018-07-19T07:15:24.565Z,10.57
2018-07-19T07:17:53.184Z,9.83
2018-07-19T07:20:21.969Z,8.63
2018-07-19T07:22:50.892Z,4.40
2018-07-19T07:25:19.484Z,6.10
2018-07-19T07:27:48.072Z,7.67
2018-07-19T07:30:16.633Z,4.63
2018-07-19T07:32:45.280Z,7.13
2018-07-19T07:35:13.886Z,10.80
2018-07-19T07:37:43.232Z,5.83
2018-07-19T07:40:11.431Z,6.33
2018-07-19T07:42:40.804Z,5.57
2018-07-19T07:45:09.406Z,3.63
2018-07-19T07:47:37.736Z,8.80
2018-07-19T07:50:06.425Z,6.43
2018-07-19T07:52:35.039Z,4.10
2018-07-19T07:55:03.697Z,6.50
2018-07-19T07:57:32.269Z,10.00
2018-07-19T08:00:00.846Z,4.77
2018-07-19T08:02:29.397Z,6.80
2018-07-19T08:04:58.016Z,4.10
2018-07-19T08:07:26.564Z,6.50
2018-07-19T08:09:54.805Z,4.67
2018-07-19T08:12:23.426Z,14.87
2018-07-19T08:14:51.673Z,6.13
2018-07-19T08:17:20.241Z,5.33
2018-07-19T08:19:56.644Z,5.30
2018-07-19T08:22:25.493Z,5.07
2018-07-19T08:24:54.136Z,8.03
2018-07-19T08:27:23.242Z,7.20
2018-07-19T08:29:51.862Z,10.07
2018-07-19T08:32:20.610Z,5.47
2018-07-19T08:34:49.337Z,15.53
2018-07-19T08:37:31.638Z,7.00
2018-07-19T08:40:00.273Z,10.40
2018-07-19T08:42:28.617Z,9.50
2018-07-19T08:44:57.270Z,7.87
2018-07-19T08:47:25.924Z,12.03
2018-07-19T08:49:54.203Z,5.40
2018-07-19T08:52:22.761Z,8.63
2018-07-19T08:54:53.886Z,7.90
2018-07-19T08:57:22.470Z,6.97
2018-07-19T08:59:51.144Z,5.63
2018-07-19T09:02:19.717Z,3.80
2018-07-19T09:04:48.352Z,8.50
2018-07-19T09:07:16.906Z,9.47
2018-07-19T09:09:45.482Z,7.47
2018-07-19T09:12:15.125Z,10.57
2018-07-19T09:14:43.788Z,10.80
2018-07-19T09:17:12.341Z,7.30
2018-07-19T09:19:41.308Z,6.67
2018-07-19T09:22:10.325Z,4.53
2018-07-19T09:24:38.974Z,7.40
2018-07-19T09:27:08.145Z,5.13
2018-07-19T09:29:38.073Z,5.40
2018-07-19T09:32:06.800Z,5.43
2018-07-19T09:34:35.374Z,3.73
2018-07-19T09:37:03.946Z,8.00
2018-07-19T09:39:33.129Z,12.97
2018-07-19T09:42:01.356Z,5.30
2018-07-19T09:44:29.593Z,7.90
2018-07-19T09:46:58.148Z,9.70
2018-07-19T09:49:26.708Z,7.43
2018-07-19T09:51:56.371Z,7.90
2018-07-19T09:54:36.223Z,5.70
2018-07-19T09:57:05.086Z,5.37
2018-07-19T09:59:33.799Z,5.53
2018-07-19T10:02:02.305Z,6.80
2018-07-19T10:04:30.595Z,3.27
2018-07-19T10:06:59.274Z,3.80
2018-07-19T10:09:27.524Z,5.67
2018-07-19T10:11:56.411Z,4.80
2018-07-19T10:14:25.092Z,3.20
2018-07-19T10:16:53.612Z,4.40
2018-07-19T10:19:21.856Z,7.47
2018-07-19T10:21:50.490Z,4.60
2018-07-19T10:24:19.183Z,8.43
2018-07-19T10:26:48.057Z,8.33
2018-07-19T10:29:16.781Z,5.07
2018-07-19T10:31:45.365Z,5.13
2018-07-19T10:34:13.935Z,3.83
2018-07-19T10:36:42.498Z,6.60
2018-07-19T10:39:11.239Z,8.00
2018-07-19T10:41:40.040Z,3.77
2018-07-19T10:44:08.809Z,9.30
2018-07-19T10:46:38.040Z,5.37
2018-07-19T10:49:06.357Z,4.13
2018-07-19T10:51:34.952Z,5.87
2018-07-19T10:54:03.665Z,11.33
2018-07-19T10:56:32.249Z,6.13
2018-07-19T10:59:00.926Z,4.37
2018-07-19T11:01:29.528Z,4.73
2018-07-19T11:03:58.087Z,4.93
2018-07-19T11:06:26.726Z,6.20
2018-07-19T11:08:55.576Z,4.80
2018-07-19T11:11:24.959Z,2.33
2018-07-19T11:13:55.486Z,6.33
2018-07-19T11:16:24.073Z,5.63
2018-07-19T11:18:53.840Z,6.33
2018-07-19T11:21:22.994Z,5.97
2018-07-19T11:23:51.508Z,3.50
2018-07-19T11:26:20.105Z,21.90
2018-07-19T11:28:48.650Z,23.93
2018-07-19T11:31:18.121Z,5.60
2018-07-19T11:33:46.657Z,8.73
2018-07-19T11:36:15.245Z,9.63
2018-07-19T11:38:43.778Z,5.00
2018-07-19T11:41:12.334Z,13.20
2018-07-19T11:43:40.556Z,5.97
2018-07-19T11:46:09.080Z,5.93
2018-07-19T11:48:37.724Z,4.17
2018-07-19T11:51:06.635Z,4.07
2018-07-19T11:53:35.253Z,6.53
2018-07-19T11:56:04.770Z,7.10
2018-07-19T11:58:33.017Z,6.90
2018-07-19T12:01:01.530Z,4.63
2018-07-19T12:03:30.277Z,6.70
2018-07-19T12:05:58.821Z,6.27
2018-07-19T12:08:27.933Z,4.90
2018-07-19T12:10:57.018Z,5.30
2018-07-19T12:13:25.571Z,5.10
2018-07-19T12:15:53.780Z,4.40
2018-07-19T12:18:22.330Z,4.57
2018-07-19T12:20:50.517Z,6.67
2018-07-19T12:23:18.765Z,5.13
2018-07-19T12:25:47.352Z,7.50
2018-07-19T12:28:18.289Z,4.20
2018-07-19T12:30:46.877Z,5.83
2018-07-19T12:33:15.438Z,5.10
2018-07-19T12:35:44.022Z,3.10
2018-07-19T12:38:12.658Z,8.47
2018-07-19T12:40:41.205Z,5.30
2018-07-19T12:43:10.300Z,8.03
2018-07-19T12:45:39.418Z,4.80
2018-07-19T12:48:07.985Z,10.07
2018-07-19T12:50:36.563Z,5.03
2018-07-19T12:53:05.233Z,6.27
2018-07-19T12:55:33.758Z,5.80
2018-07-19T12:58:02.610Z,5.13
2018-07-19T13:00:31.493Z,3.93
2018-07-19T13:03:00.149Z,6.60
2018-07-19T13:05:28.769Z,8.83
2018-07-19T13:07:57.799Z,6.03
2018-07-19T13:10:26.346Z,2.93
2018-07-19T13:12:55.746Z,6.70
2018-07-19T13:15:24.389Z,8.87
2018-07-19T13:17:52.632Z,9.03
2018-07-19T13:20:21.190Z,7.37
2018-07-19T13:22:49.806Z,4.60
2018-07-19T13:25:18.701Z,6.80
2018-07-19T13:27:47.319Z,3.40
2018-07-19T13:30:15.886Z,6.00
2018-07-19T13:32:44.208Z,10.27
2018-07-19T13:35:12.796Z,5.13
2018-07-19T13:37:42.150Z,6.40
2018-07-19T13:40:11.003Z,3.73
2018-07-19T13:42:40.217Z,5.00
2018-07-19T13:45:09.252Z,5.50
2018-07-19T13:47:37.883Z,4.83
2018-07-19T13:50:06.501Z,3.53
2018-07-19T13:52:40.320Z,6.97
2018-07-19T13:55:08.873Z,4.30
2018-07-19T13:57:37.420Z,5.87
2018-07-19T14:00:06.022Z,3.73
2018-07-19T14:02:35.073Z,3.73
2018-07-19T14:05:03.746Z,3.57
2018-07-19T14:07:32.340Z,5.70
2018-07-19T14:10:00.557Z,4.83
2018-07-19T14:12:29.113Z,5.60
2018-07-19T14:14:57.311Z,5.73
2018-07-19T14:17:25.913Z,6.70
2018-07-19T14:19:54.505Z,4.57
2018-07-19T14:22:23.159Z,3.83
2018-07-19T14:24:52.189Z,4.00
2018-07-19T14:27:21.459Z,4.77
2018-07-19T14:29:50.005Z,4.63
2018-07-19T14:32:18.848Z,5.83
2018-07-19T14:34:47.465Z,6.80
2018-07-19T14:37:15.686Z,9.43
2018-07-19T14:39:44.225Z,4.97
2018-07-19T14:42:12.780Z,4.43
2018-07-19T14:44:41.341Z,7.63
2018-07-19T14:47:09.892Z,5.67
2018-07-19T14:49:38.103Z,6.67
2018-07-19T14:52:07.072Z,7.03
2018-07-19T14:54:35.689Z,3.83
2018-07-19T14:57:04.281Z,6.00
2018-07-19T14:59:32.820Z,5.63
2018-07-19T15:02:01.372Z,5.50
2018-07-19T15:04:29.926Z,5.80
2018-07-19T15:06:58.416Z,5.83
2018-07-19T15:09:26.989Z,5.63
2018-07-19T15:11:56.525Z,6.93
2018-07-19T15:14:25.117Z,10.17
2018-07-19T15:16:53.709Z,6.67
2018-07-19T15:19:22.284Z,5.50
2018-07-19T15:21:50.811Z,6.43
2018-07-19T15:30:10.900Z,5.20
2018-07-19T15:32:39.253Z,5.93
2018-07-19T15:35:07.896Z,7.17
2018-07-19T15:37:36.449Z,6.50
2018-07-19T15:40:05.940Z,3.83
2018-07-19T15:42:34.489Z,7.50
2018-07-19T15:45:03.109Z,8.57
2018-07-19T15:47:35.159Z,5.23
2018-07-19T15:50:04.421Z,6.27
2018-07-19T15:52:32.969Z,5.83
2018-07-19T15:55:01.746Z,8.00
2018-07-19T15:57:31.517Z,5.27
2018-07-19T16:00:00.068Z,6.80
2018-07-19T16:02:28.260Z,8.27
2018-07-19T16:04:56.862Z,7.87
2018-07-19T16:07:25.424Z,7.03
2018-07-19T16:09:53.977Z,7.00
2018-07-19T16:12:22.514Z,6.83
2018-07-19T16:14:51.074Z,7.07
2018-07-19T16:17:19.264Z,4.50
2018-07-19T16:19:47.853Z,6.57
2018-07-19T16:22:16.370Z,5.23
2018-07-19T16:24:44.944Z,9.33
2018-07-19T16:27:13.819Z,6.97
2018-07-19T16:29:42.377Z,4.83
2018-07-19T16:32:10.925Z,7.33
2018-07-19T16:34:39.494Z,9.53
2018-07-19T16:37:08.156Z,7.63
2018-07-19T16:39:36.695Z,4.90
2018-07-19T16:42:05.222Z,5.93
2018-07-19T16:44:33.776Z,5.83
2018-07-19T16:47:01.964Z,9.50
2018-07-19T16:49:30.533Z,7.43
2018-07-19T16:51:58.724Z,3.50
2018-07-19T16:54:28.008Z,5.50
2018-07-19T16:56:56.350Z,8.03
2018-07-19T16:59:24.885Z,7.37
2018-07-19T17:01:53.871Z,8.10
2018-07-19T17:04:22.426Z,5.80
2018-07-19T17:06:50.965Z,5.93
2018-07-19T17:09:19.534Z,6.40
2018-07-19T17:11:48.126Z,4.87
2018-07-19T17:14:16.309Z,4.37
2018-07-19T17:16:44.862Z,11.63
2018-07-19T17:19:13.097Z,8.53
2018-07-19T17:21:41.633Z,3.97
2018-07-19T17:24:10.181Z,10.50
2018-07-19T17:26:39.714Z,5.67
2018-07-19T17:29:08.282Z,3.40
2018-07-19T17:31:36.831Z,4.80
2018-07-19T17:34:05.405Z,7.40
2018-07-19T17:36:33.929Z,3.23
2018-07-19T17:39:02.470Z,4.63
2018-07-19T17:41:31.410Z,9.63
2018-07-19T17:43:59.922Z,4.43
2018-07-19T17:46:28.519Z,5.13
2018-07-19T17:48:57.067Z,5.37
2018-07-19T17:51:25.336Z,8.23
2018-07-19T17:53:53.883Z,11.50
2018-07-19T17:56:22.413Z,6.73
2018-07-19T17:58:50.847Z,5.77
2018-07-19T18:01:20.062Z,4.23
2018-07-19T18:03:48.613Z,6.97
2018-07-19T18:06:17.201Z,5.53
2018-07-19T18:08:45.725Z,7.13
2018-07-19T18:11:14.303Z,3.90
2018-07-19T18:13:42.853Z,11.17
2018-07-19T18:16:11.532Z,4.50
2018-07-19T18:18:40.042Z,3.90
2018-07-19T18:21:08.618Z,9.00
2018-07-19T18:23:37.149Z,6.07
2018-07-19T18:26:05.409Z,6.67
2018-07-19T18:28:33.933Z,6.73
2018-07-19T18:31:02.667Z,6.03
2018-07-19T18:33:31.183Z,7.70
2018-07-19T18:35:59.434Z,6.40
2018-07-19T18:38:27.955Z,7.13
2018-07-19T18:40:56.563Z,10.03
2018-07-19T18:43:25.312Z,5.57
2018-07-19T18:45:53.556Z,8.43
2018-07-19T18:48:22.105Z,6.73
2018-07-19T18:50:50.676Z,6.57
2018-07-19T18:53:19.261Z,4.93
2018-07-19T18:55:48.106Z,10.03
2018-07-19T18:58:16.622Z,6.70
2018-07-19T19:00:45.224Z,5.53
2018-07-19T19:03:14.485Z,7.83
2018-07-19T19:05:43.042Z,4.93
2018-07-19T19:08:11.557Z,4.90
2018-07-19T19:10:40.113Z,4.33
2018-07-19T19:13:08.663Z,8.97
2018-07-19T19:15:37.226Z,4.00
2018-07-19T19:18:05.758Z,5.50
2018-07-19T19:20:34.341Z,7.07
2018-07-19T19:23:02.860Z,7.57
2018-07-19T19:25:31.098Z,6.23
2018-07-19T19:27:59.607Z,4.10
2018-07-19T19:30:28.185Z,27.50
2018-07-19T19:32:56.735Z,30.30
2018-07-19T19:35:25.295Z,46.13
2018-07-19T19:37:53.813Z,53.80
2018-07-19T19:40:23.363Z,39.90
2018-07-19T19:42:51.902Z,51.17
2018-07-19T19:45:20.487Z,28.10
2018-07-19T19:47:49.055Z,31.03
2018-07-19T19:50:17.568Z,22.30
2018-07-19T19:52:46.078Z,30.23
2018-07-19T19:55:14.670Z,23.07
2018-07-19T19:57:43.204Z,44.27
2018-07-19T20:00:11.784Z,32.43
2018-07-19T20:02:40.305Z,42.60
2018-07-19T20:05:09.456Z,49.43
2018-07-19T20:07:37.989Z,42.60
2018-07-19T20:10:06.541Z,35.37
2018-07-19T20:12:35.076Z,52.23
2018-07-19T20:15:03.696Z,31.03
2018-07-19T20:17:32.337Z,33.20
2018-07-19T20:20:00.849Z,32.00
2018-07-19T20:22:29.419Z,31.40
2018-07-19T20:24:57.969Z,34.53
2018-07-19T20:27:26.514Z,14.60
2018-07-19T20:29:55.066Z,13.97
2018-07-19T20:32:23.601Z,23.10
2018-07-19T20:34:52.118Z,18.07
2018-07-19T20:37:20.332Z,9.37
2018-07-19T20:39:48.893Z,10.93
2018-07-19T20:42:17.425Z,6.57
2018-07-19T20:44:45.917Z,5.63
2018-07-19T20:47:14.689Z,6.97
2018-07-19T20:49:43.791Z,7.83
2018-07-19T20:52:13.149Z,7.17
2018-07-19T20:54:41.958Z,7.00
2018-07-19T20:57:12.157Z,5.33
2018-07-19T20:59:42.100Z,21.60
2018-07-19T21:02:12.753Z,14.27
2018-07-19T21:04:41.415Z,12.60
2018-07-19T21:07:10.360Z,10.67
2018-07-19T21:09:39.108Z,12.10
2018-07-19T21:12:07.694Z,8.83
2018-07-19T21:14:36.242Z,14.10
2018-07-19T21:17:04.814Z,10.37
2018-07-19T21:19:32.988Z,15.47
2018-07-19T21:22:01.229Z,13.60
2018-07-19T21:24:29.761Z,8.47
2018-07-19T21:26:58.382Z,6.93
2018-07-19T21:29:26.909Z,13.60
2018-07-19T21:31:55.118Z,12.40
2018-07-19T21:34:23.625Z,11.60
2018-07-19T21:36:52.559Z,8.40
2018-07-19T21:39:23.247Z,8.27
2018-07-19T21:41:51.861Z,6.63
2018-07-19T21:44:20.412Z,13.30
2018-07-19T21:46:48.959Z,8.00
2018-07-19T21:49:17.537Z,7.10
2018-07-19T21:51:45.760Z,14.80
2018-07-19T21:54:15.531Z,10.43
2018-07-19T21:56:44.773Z,9.90
2018-07-19T21:59:13.325Z,5.23
2018-07-19T22:01:45.372Z,9.67
2018-07-19T22:04:15.325Z,9.20
2018-07-19T22:06:44.166Z,7.97
2018-07-19T22:09:13.417Z,8.87
2018-07-19T22:11:41.965Z,4.73
2018-07-19T22:14:10.161Z,8.80
2018-07-19T22:16:39.934Z,9.50
2018-07-19T22:19:08.775Z,5.10
2018-07-19T22:21:37.393Z,7.30
2018-07-19T22:24:06.025Z,10.87
2018-07-19T22:26:34.625Z,5.60
2018-07-19T22:29:03.173Z,11.13
2018-07-19T22:31:31.440Z,5.10
2018-07-19T22:33:59.948Z,6.77
2018-07-19T22:36:28.661Z,10.67
2018-07-19T22:38:57.223Z,5.67
2018-07-19T22:41:25.774Z,5.10
2018-07-19T22:43:54.301Z,6.23
2018-07-19T22:46:22.948Z,9.27
2018-07-19T22:48:55.055Z,6.47
2018-07-19T22:51:24.506Z,5.20
2018-07-19T22:53:53.098Z,8.43
2018-07-19T22:56:22.423Z,10.20
2018-07-19T22:58:50.669Z,8.63
2018-07-19T23:01:19.181Z,6.93
2018-07-19T23:03:47.424Z,8.67
2018-07-19T23:06:16.251Z,6.37
2018-07-19T23:08:44.853Z,6.30
2018-07-19T23:11:13.485Z,8.80
2018-07-19T23:13:42.014Z,8.23
2018-07-19T23:16:10.818Z,8.10
2018-07-19T23:18:40.084Z,7.77
2018-07-19T23:21:08.267Z,7.30
2018-07-19T23:23:36.468Z,9.30
2018-07-19T23:26:05.177Z,6.67
2018-07-19T23:28:33.776Z,7.53
2018-07-19T23:31:02.509Z,5.87
2018-07-19T23:33:31.205Z,6.20
2018-07-19T23:36:04.380Z,4.43
2018-07-19T23:38:36.682Z,8.70
2018-07-19T23:41:09.343Z,5.97
2018-07-19T23:43:40.490Z,7.27
2018-07-19T23:46:23.769Z,8.73
2018-07-19T23:48:53.029Z,8.90
2018-07-19T23:51:21.550Z,7.57
2018-07-19T23:53:50.080Z,6.53
2018-07-19T23:56:18.284Z,9.40
2018-07-19T23:58:46.849Z,6.07
